createdAt,value
2022-12-19T00:01:18.776Z,23.85
2022-12-19T00:03:46.350Z,25.00
2022-12-19T00:06:13.693Z,24.17
2022-12-19T00:08:47.368Z,25.25
2022-12-19T00:11:14.626Z,25.00
2022-12-19T00:13:41.580Z,24.92
2022-12-19T00:16:19.142Z,24.35
2022-12-19T00:18:47.048Z,24.02
2022-12-19T00:21:15.015Z,23.27
2022-12-19T00:23:41.811Z,25.13
2022-12-19T00:26:22.272Z,24.60
2022-12-19T00:28:50.319Z,23.92
2022-12-19T00:31:17.676Z,22.80
2022-12-19T00:33:46.074Z,22.30
2022-12-19T00:36:15.110Z,23.90
2022-12-19T00:38:43.871Z,23.60
2022-12-19T00:41:11.964Z,25.58
2022-12-19T00:43:39.284Z,33.75
2022-12-19T00:46:07.875Z,35.60
2022-12-19T00:48:34.667Z,32.20
2022-12-19T00:51:03.179Z,31.17
2022-12-19T00:53:31.437Z,28.45
2022-12-19T00:56:01.614Z,28.60
2022-12-19T00:58:28.265Z,26.58
2022-12-19T01:00:54.939Z,26.80
2022-12-19T01:03:21.688Z,27.73
2022-12-19T01:05:50.322Z,29.42
2022-12-19T01:08:17.070Z,29.08
2022-12-19T01:10:45.768Z,26.83
2022-12-19T01:13:12.664Z,25.50
2022-12-19T01:15:44.015Z,27.17
2022-12-19T01:18:10.862Z,26.85
2022-12-19T01:20:38.133Z,26.55
2022-12-19T01:23:04.832Z,25.85
2022-12-19T01:25:32.578Z,25.23
2022-12-19T01:28:01.055Z,26.15
2022-12-19T01:30:29.168Z,29.75
2022-12-19T01:32:57.965Z,29.17
2022-12-19T01:35:27.145Z,29.20
2022-12-19T01:38:07.864Z,28.25
2022-12-19T01:40:35.565Z,27.42
2022-12-19T01:43:02.286Z,29.33
2022-12-19T01:45:34.392Z,27.55
2022-12-19T01:48:04.225Z,28.38
2022-12-19T01:50:30.896Z,29.80
2022-12-19T01:52:58.143Z,29.33
2022-12-19T01:55:25.181Z,29.35
2022-12-19T01:57:52.346Z,29.23
2022-12-19T02:00:19.057Z,30.60
2022-12-19T02:02:54.368Z,29.92
2022-12-19T02:05:21.429Z,30.88
2022-12-19T02:07:49.475Z,32.55
2022-12-19T02:10:16.117Z,32.25
2022-12-19T02:12:44.513Z,32.50
2022-12-19T02:15:14.006Z,30.30
2022-12-19T02:17:40.590Z,32.00
2022-12-19T02:20:26.081Z,29.63
2022-12-19T02:23:11.211Z,32.17
2022-12-19T02:25:43.017Z,32.65
2022-12-19T02:28:09.650Z,32.05
2022-12-19T02:30:49.924Z,32.50
2022-12-19T02:33:33.116Z,32.78
2022-12-19T02:36:05.284Z,33.25
2022-12-19T02:38:36.654Z,32.65
2022-12-19T02:41:06.321Z,33.10
2022-12-19T02:43:35.775Z,34.30
2022-12-19T02:46:04.651Z,33.92
2022-12-19T02:48:33.257Z,32.08
2022-12-19T02:51:00.173Z,31.50
2022-12-19T02:53:26.873Z,33.67
2022-12-19T02:56:12.923Z,32.65
2022-12-19T02:58:52.744Z,31.63
2022-12-19T03:01:20.673Z,34.63
2022-12-19T03:03:58.510Z,32.30
2022-12-19T03:06:30.815Z,32.00
2022-12-19T03:09:01.272Z,33.17
2022-12-19T03:11:34.617Z,32.53
2022-12-19T03:14:04.020Z,31.45
2022-12-19T03:16:30.815Z,32.97
2022-12-19T03:18:59.118Z,31.80
2022-12-19T03:21:36.465Z,35.33
2022-12-19T03:24:03.900Z,33.65
2022-12-19T03:26:33.173Z,35.72
2022-12-19T03:29:01.846Z,33.85
2022-12-19T03:31:30.045Z,35.80
2022-12-19T03:33:58.637Z,37.58
2022-12-19T03:36:27.687Z,36.60
2022-12-19T03:38:55.113Z,35.95
2022-12-19T03:41:42.323Z,37.33
2022-12-19T03:44:10.293Z,37.65
2022-12-19T03:46:39.660Z,36.70
2022-12-19T03:49:07.156Z,37.75
2022-12-19T03:51:48.100Z,38.75
2022-12-19T03:54:20.732Z,38.80
2022-12-19T03:56:53.411Z,39.53
2022-12-19T03:59:21.207Z,38.58
2022-12-19T04:01:48.395Z,40.38
2022-12-19T04:04:15.771Z,40.80
2022-12-19T04:06:43.390Z,38.80
2022-12-19T04:09:10.325Z,38.33
2022-12-19T04:11:42.015Z,39.10
2022-12-19T04:14:11.777Z,39.05
2022-12-19T04:17:01.712Z,37.72
2022-12-19T04:19:48.522Z,38.30
2022-12-19T04:22:18.297Z,35.53
2022-12-19T04:24:46.312Z,34.97
2022-12-19T04:27:13.499Z,39.03
2022-12-19T04:29:40.520Z,36.40
2022-12-19T04:32:08.739Z,37.90
2022-12-19T04:34:37.876Z,36.03
2022-12-19T04:37:08.138Z,40.40
2022-12-19T04:39:34.943Z,41.10
2022-12-19T04:42:01.561Z,36.63
2022-12-19T04:44:28.204Z,38.75
2022-12-19T04:46:54.848Z,39.63
2022-12-19T04:49:21.495Z,39.55
2022-12-19T04:51:48.184Z,39.15
2022-12-19T04:54:14.834Z,40.42
2022-12-19T04:56:41.435Z,37.30
2022-12-19T04:59:08.159Z,37.60
2022-12-19T05:01:34.838Z,36.38
2022-12-19T05:04:04.626Z,41.17
2022-12-19T05:06:31.558Z,41.20
2022-12-19T05:08:58.443Z,42.88
2022-12-19T05:11:25.124Z,40.13
2022-12-19T05:13:51.831Z,38.17
2022-12-19T05:16:18.897Z,38.58
2022-12-19T05:18:45.740Z,39.35
2022-12-19T05:21:12.397Z,37.28
2022-12-19T05:23:39.022Z,36.35
2022-12-19T05:26:06.261Z,35.08
2022-12-19T05:28:33.235Z,32.08
2022-12-19T05:31:05.933Z,33.03
2022-12-19T05:33:32.950Z,31.70
2022-12-19T05:35:59.671Z,32.28
2022-12-19T05:38:26.706Z,31.70
2022-12-19T05:40:53.379Z,31.45
2022-12-19T05:43:20.035Z,32.90
2022-12-19T05:45:46.739Z,30.88
2022-12-19T05:48:13.536Z,30.17
2022-12-19T05:50:40.134Z,30.92
2022-12-19T05:53:09.608Z,30.92
2022-12-19T05:55:36.613Z,32.83
2022-12-19T05:58:03.245Z,30.55
2022-12-19T06:00:29.863Z,30.90
2022-12-19T06:02:56.690Z,31.17
2022-12-19T06:05:23.610Z,30.42
2022-12-19T06:07:50.414Z,31.63
2022-12-19T06:10:17.116Z,29.55
2022-12-19T06:12:43.812Z,32.78
2022-12-19T06:15:10.657Z,32.03
2022-12-19T06:17:37.263Z,30.35
2022-12-19T06:20:04.048Z,30.25
2022-12-19T06:22:30.629Z,29.05
2022-12-19T06:24:57.257Z,31.15
2022-12-19T06:27:23.927Z,31.85
2022-12-19T06:29:50.567Z,32.22
2022-12-19T06:32:17.132Z,30.05
2022-12-19T06:37:30.378Z,29.60
2022-12-19T06:39:57.035Z,31.55
2022-12-19T06:42:23.731Z,29.52
2022-12-19T06:44:55.998Z,30.23
2022-12-19T06:47:23.444Z,29.42
2022-12-19T06:49:50.288Z,29.70
2022-12-19T06:52:17.074Z,30.85
2022-12-19T06:54:43.739Z,31.58
2022-12-19T06:57:10.357Z,32.20
2022-12-19T06:59:37.023Z,29.77
2022-12-19T07:02:24.110Z,30.92
2022-12-19T07:04:55.510Z,30.67
2022-12-19T07:07:22.140Z,30.27
2022-12-19T07:09:48.774Z,31.27
2022-12-19T07:12:15.462Z,32.75
2022-12-19T07:14:42.028Z,31.88
2022-12-19T07:17:08.678Z,29.83
2022-12-19T07:19:35.453Z,30.17
2022-12-19T07:22:02.259Z,29.33
2022-12-19T07:24:29.168Z,31.55
2022-12-19T07:26:55.882Z,32.20
2022-12-19T07:29:22.636Z,31.80
2022-12-19T07:31:49.296Z,30.80
2022-12-19T07:34:16.076Z,30.65
2022-12-19T07:36:42.677Z,35.28
2022-12-19T07:39:09.401Z,32.97
2022-12-19T07:41:36.636Z,31.30
2022-12-19T07:44:03.261Z,33.28
2022-12-19T07:46:30.248Z,36.50
2022-12-19T07:48:57.386Z,35.72
2022-12-19T07:51:24.040Z,32.40
2022-12-19T07:53:50.670Z,32.55
2022-12-19T07:56:17.451Z,33.17
2022-12-19T07:58:44.730Z,32.28
2022-12-19T08:01:12.497Z,35.92
2022-12-19T08:03:39.384Z,33.60
2022-12-19T08:06:06.852Z,33.65
2022-12-19T08:08:33.781Z,35.58
2022-12-19T08:11:10.807Z,32.85
2022-12-19T08:13:41.015Z,39.78
2022-12-19T08:16:11.755Z,40.05
2022-12-19T08:18:38.425Z,42.60
2022-12-19T08:21:05.490Z,41.72
2022-12-19T08:23:33.040Z,42.15
2022-12-19T08:26:04.264Z,39.13
2022-12-19T08:28:32.193Z,37.45
2022-12-19T08:31:00.701Z,36.47
2022-12-19T08:33:27.458Z,35.00
2022-12-19T08:35:54.019Z,34.95
2022-12-19T08:38:20.670Z,34.90
2022-12-19T08:40:56.337Z,33.75
2022-12-19T08:43:23.369Z,34.88
2022-12-19T08:45:50.339Z,33.78
2022-12-19T08:48:17.762Z,34.13
2022-12-19T08:50:54.733Z,38.42
2022-12-19T08:53:26.022Z,35.42
2022-12-19T08:56:00.255Z,36.55
2022-12-19T08:58:27.904Z,34.70
2022-12-19T09:00:58.895Z,34.05
2022-12-19T09:03:36.735Z,36.83
2022-12-19T09:06:19.313Z,38.53
2022-12-19T09:08:46.883Z,40.25
2022-12-19T09:11:17.928Z,40.08
2022-12-19T09:13:45.080Z,37.17
2022-12-19T09:16:16.133Z,41.75
2022-12-19T09:18:48.502Z,40.28
2022-12-19T09:21:16.451Z,37.13
2022-12-19T09:23:43.652Z,38.05
2022-12-19T09:26:13.381Z,41.88
2022-12-19T09:28:40.963Z,41.92
2022-12-19T09:31:08.793Z,39.42
2022-12-19T09:33:42.936Z,38.00
2022-12-19T09:36:18.078Z,36.28
2022-12-19T09:38:45.249Z,35.70
2022-12-19T09:41:30.845Z,39.40
2022-12-19T09:44:16.019Z,40.80
2022-12-19T09:46:50.967Z,39.20
2022-12-19T09:49:19.822Z,39.55
2022-12-19T09:52:04.936Z,38.55
2022-12-19T09:54:37.075Z,39.63
2022-12-19T09:57:13.101Z,39.25
2022-12-19T09:59:49.693Z,37.10
2022-12-19T10:02:33.232Z,37.78
2022-12-19T10:05:43.240Z,39.38
2022-12-19T10:08:08.471Z,39.58
2022-12-19T10:12:36.393Z,40.20
2022-12-19T10:13:37.345Z,37.92
2022-12-19T10:16:12.228Z,40.33
2022-12-19T10:18:38.929Z,40.10
2022-12-19T10:21:37.001Z,40.80
2022-12-19T10:24:14.381Z,40.00
2022-12-19T10:26:51.569Z,38.72
2022-12-19T10:29:25.359Z,38.22
2022-12-19T10:32:00.001Z,37.30
2022-12-19T10:34:40.632Z,35.97
2022-12-19T10:37:25.351Z,36.72
2022-12-19T10:39:56.297Z,38.00
2022-12-19T10:42:33.772Z,37.42
2022-12-19T10:45:02.822Z,38.60
2022-12-19T10:47:31.224Z,37.90
2022-12-19T10:50:01.400Z,36.30
2022-12-19T10:53:00.078Z,36.03
2022-12-19T10:55:37.810Z,31.55
2022-12-19T10:58:12.149Z,33.95
2022-12-19T11:00:45.724Z,35.08
2022-12-19T11:03:16.703Z,36.97
2022-12-19T11:05:46.125Z,37.03
2022-12-19T11:08:20.724Z,38.42
2022-12-19T11:12:35.788Z,39.00
2022-12-19T11:19:13.330Z,37.97
2022-12-19T11:21:10.546Z,39.45
2022-12-19T11:29:33.928Z,39.40
2022-12-19T11:29:43.288Z,36.20
2022-12-19T11:30:08.861Z,36.05
2022-12-19T11:30:39.206Z,35.42
2022-12-19T11:33:27.911Z,33.63
2022-12-19T11:35:55.965Z,31.60
2022-12-19T11:38:37.270Z,32.28
2022-12-19T11:41:14.732Z,33.63
2022-12-19T11:44:03.497Z,34.00
2022-12-19T11:46:36.056Z,34.00
2022-12-19T11:49:21.545Z,30.50
2022-12-19T11:51:48.277Z,32.08
2022-12-19T11:54:19.549Z,31.63
2022-12-19T11:56:46.308Z,32.95
2022-12-19T11:59:16.823Z,34.42
2022-12-19T12:01:46.737Z,33.55
2022-12-19T12:04:19.693Z,34.20
2022-12-19T12:06:49.027Z,37.28
2022-12-19T12:12:12.884Z,35.17
2022-12-19T12:20:58.509Z,35.33
2022-12-19T12:25:27.663Z,34.50
2022-12-19T12:30:59.687Z,36.90
2022-12-19T12:31:07.374Z,34.78
2022-12-19T12:31:29.547Z,33.88
2022-12-19T12:31:52.226Z,31.50
2022-12-19T12:32:05.063Z,34.78
2022-12-19T12:35:52.122Z,33.15
2022-12-19T12:38:24.484Z,32.03
2022-12-19T12:41:10.458Z,30.40
2022-12-19T12:43:37.275Z,29.55
2022-12-19T12:46:05.139Z,30.52
2022-12-19T12:48:54.244Z,33.85
2022-12-19T12:51:21.435Z,33.50
2022-12-19T12:53:48.454Z,36.30
2022-12-19T12:56:16.797Z,36.00
2022-12-19T12:58:43.627Z,34.72
2022-12-19T13:01:12.279Z,35.00
2022-12-19T13:03:41.477Z,33.90
2022-12-19T13:06:20.218Z,34.80
2022-12-19T13:08:48.356Z,35.67
2022-12-19T13:11:52.707Z,33.45
2022-12-19T13:14:34.762Z,34.08
2022-12-19T13:17:10.522Z,34.95
2022-12-19T13:19:53.215Z,35.95
2022-12-19T13:22:21.568Z,36.33
2022-12-19T13:24:48.313Z,34.88
2022-12-19T13:27:21.218Z,38.60
2022-12-19T13:30:00.287Z,35.75
2022-12-19T13:32:39.572Z,36.85
2022-12-19T13:36:45.932Z,36.47
2022-12-19T13:39:59.856Z,35.30
2022-12-19T13:41:58.019Z,33.75
2022-12-19T13:44:24.933Z,34.15
2022-12-19T13:46:52.053Z,33.35
2022-12-19T13:49:35.045Z,31.67
2022-12-19T13:52:02.957Z,32.95
2022-12-19T13:54:33.037Z,32.10
2022-12-19T13:57:00.889Z,30.50
2022-12-19T13:59:37.853Z,31.25
2022-12-19T14:02:10.946Z,30.67
2022-12-19T14:04:40.174Z,32.40
2022-12-19T14:07:19.673Z,31.02
2022-12-19T14:11:30.396Z,28.77
2022-12-19T14:13:55.751Z,28.58
2022-12-19T14:15:46.230Z,28.65
2022-12-19T14:18:45.335Z,30.10
2022-12-19T14:22:04.417Z,27.95
2022-12-19T14:24:14.753Z,28.30
2022-12-19T14:28:25.853Z,28.30
2022-12-19T14:29:55.935Z,27.63
2022-12-19T14:33:45.211Z,25.77
2022-12-19T14:36:10.648Z,27.85
2022-12-19T14:39:19.473Z,26.20
2022-12-19T14:41:08.475Z,26.40
2022-12-19T14:43:59.551Z,24.30
2022-12-19T14:54:05.764Z,24.48
2022-12-19T14:54:07.890Z,24.58
2022-12-19T14:54:24.346Z,23.92
2022-12-19T14:56:08.211Z,26.23
2022-12-19T14:58:55.727Z,24.42
2022-12-19T15:01:23.317Z,24.50
2022-12-19T15:04:50.920Z,24.27
2022-12-19T15:07:07.491Z,22.98
2022-12-19T15:11:07.926Z,21.50
2022-12-19T15:14:50.735Z,21.02
2022-12-19T15:15:45.795Z,19.70
2022-12-19T15:18:20.689Z,17.20
2022-12-19T15:20:47.530Z,17.08
2022-12-19T15:23:21.494Z,17.50
2022-12-19T15:26:06.022Z,17.38
2022-12-19T15:28:41.786Z,15.85
2022-12-19T15:31:17.796Z,15.18
2022-12-19T15:34:07.115Z,16.17
2022-12-19T15:36:31.427Z,14.60
2022-12-19T15:38:58.419Z,15.95
2022-12-19T15:41:25.252Z,14.63
2022-12-19T15:44:08.040Z,14.75
2022-12-19T15:46:34.934Z,14.55
2022-12-19T15:49:02.337Z,16.20
2022-12-19T15:51:29.130Z,14.65
2022-12-19T15:54:08.923Z,15.55
2022-12-19T15:56:47.104Z,16.15
2022-12-19T15:59:37.876Z,14.38
2022-12-19T16:02:19.098Z,15.60
2022-12-19T16:04:47.056Z,15.98
2022-12-19T16:07:17.469Z,14.88
2022-12-19T16:09:44.243Z,16.10
2022-12-19T16:12:19.239Z,16.67
2022-12-19T16:14:46.567Z,15.77
2022-12-19T16:17:15.257Z,15.57
2022-12-19T16:19:41.936Z,16.15
2022-12-19T16:22:28.303Z,16.95
2022-12-19T16:24:54.959Z,16.10
2022-12-19T16:27:26.487Z,17.55
2022-12-19T16:29:54.018Z,18.05
2022-12-19T16:32:23.945Z,18.33
2022-12-19T16:34:51.099Z,16.35
2022-12-19T16:37:17.802Z,16.15
2022-12-19T16:39:44.393Z,16.45
2022-12-19T16:42:18.097Z,16.90
2022-12-19T16:44:45.544Z,17.92
2022-12-19T16:47:13.650Z,20.83
2022-12-19T16:49:40.617Z,17.80
2022-12-19T16:52:07.318Z,20.30
2022-12-19T16:54:34.002Z,21.38
2022-12-19T16:57:00.860Z,22.25
2022-12-19T16:59:30.598Z,21.58
2022-12-19T17:01:57.980Z,20.35
2022-12-19T17:04:25.191Z,19.95
2022-12-19T17:06:52.477Z,21.80
2022-12-19T17:09:20.648Z,19.65
2022-12-19T17:11:50.096Z,17.58
2022-12-19T17:14:19.134Z,18.08
2022-12-19T17:16:46.155Z,18.15
2022-12-19T17:19:23.989Z,19.58
2022-12-19T17:21:51.076Z,17.83
2022-12-19T17:24:17.956Z,18.92
2022-12-19T17:26:45.353Z,17.75
2022-12-19T17:29:12.397Z,18.88
2022-12-19T17:31:39.865Z,18.88
2022-12-19T17:34:08.282Z,18.83
2022-12-19T17:36:37.783Z,18.33
2022-12-19T17:39:17.639Z,17.55
2022-12-19T17:41:45.091Z,18.77
2022-12-19T17:44:11.793Z,18.20
2022-12-19T17:46:38.560Z,18.42
2022-12-19T17:49:05.409Z,16.50
2022-12-19T17:51:32.084Z,16.40
2022-12-19T17:53:58.697Z,17.05
2022-12-19T17:56:25.403Z,16.30
2022-12-19T17:58:52.012Z,16.17
2022-12-19T18:01:25.027Z,16.23
2022-12-19T18:03:52.901Z,15.80
2022-12-19T18:06:20.282Z,14.88
2022-12-19T18:08:47.020Z,15.68
2022-12-19T18:11:38.318Z,17.63
2022-12-19T18:14:08.136Z,16.05
2022-12-19T18:16:34.883Z,14.93
2022-12-19T18:19:01.582Z,12.93
2022-12-19T18:21:28.212Z,14.90
2022-12-19T18:23:55.208Z,14.93
2022-12-19T18:26:22.118Z,15.52
2022-12-19T18:28:48.812Z,15.80
2022-12-19T18:31:15.498Z,14.15
2022-12-19T18:33:43.695Z,14.55
2022-12-19T18:36:15.981Z,14.05
2022-12-19T18:38:42.621Z,15.50
2022-12-19T18:41:10.788Z,17.50
2022-12-19T18:43:37.535Z,18.02
2022-12-19T18:46:04.360Z,15.60
2022-12-19T18:48:32.295Z,18.27
2022-12-19T18:51:00.516Z,15.73
2022-12-19T18:53:37.225Z,18.67
2022-12-19T18:56:04.571Z,17.63
2022-12-19T18:58:31.384Z,18.67
2022-12-19T19:00:59.594Z,21.90
2022-12-19T19:03:28.889Z,21.70
2022-12-19T19:05:56.008Z,19.55
2022-12-19T19:08:23.924Z,20.73
2022-12-19T19:11:01.336Z,21.00
2022-12-19T19:13:28.089Z,21.02
2022-12-19T19:15:59.155Z,23.73
2022-12-19T19:18:29.968Z,23.50
2022-12-19T19:21:00.998Z,23.75
2022-12-19T19:23:32.864Z,23.80
2022-12-19T19:25:59.633Z,26.52
2022-12-19T19:28:26.348Z,25.70
2022-12-19T19:30:53.245Z,25.35
2022-12-19T19:33:22.728Z,26.55
2022-12-19T19:35:51.824Z,26.17
2022-12-19T19:38:19.476Z,27.42
2022-12-19T19:40:46.245Z,27.35
2022-12-19T19:43:14.318Z,30.77
2022-12-19T19:45:43.514Z,30.45
2022-12-19T19:48:10.844Z,33.08
2022-12-19T19:50:37.543Z,35.38
2022-12-19T19:53:04.453Z,33.40
2022-12-19T19:55:31.131Z,31.98
2022-12-19T19:57:57.949Z,32.50
2022-12-19T20:00:24.603Z,30.00
2022-12-19T20:02:51.507Z,31.88
2022-12-19T20:05:18.386Z,32.10
2022-12-19T20:07:45.321Z,32.47
2022-12-19T20:10:12.073Z,32.25
2022-12-19T20:12:38.920Z,33.13
2022-12-19T20:15:06.238Z,36.95
2022-12-19T20:17:32.951Z,37.17
2022-12-19T20:19:59.606Z,34.28
2022-12-19T20:22:26.421Z,34.42
2022-12-19T20:24:53.962Z,34.17
2022-12-19T20:27:20.875Z,36.53
2022-12-19T20:29:47.613Z,34.60
2022-12-19T20:32:15.093Z,32.15
2022-12-19T20:34:41.826Z,31.48
2022-12-19T20:37:08.489Z,32.08
2022-12-19T20:39:35.080Z,32.38
2022-12-19T20:42:01.897Z,31.65
2022-12-19T20:44:29.085Z,32.63
2022-12-19T20:46:55.822Z,32.88
2022-12-19T20:49:23.302Z,34.53
2022-12-19T20:51:49.990Z,34.95
2022-12-19T20:54:16.857Z,31.52
2022-12-19T20:56:43.997Z,35.33
2022-12-19T20:59:11.362Z,31.45
2022-12-19T21:01:38.436Z,32.60
2022-12-19T21:04:05.542Z,31.73
2022-12-19T21:06:32.536Z,35.47
2022-12-19T21:08:59.275Z,32.83
2022-12-19T21:11:27.625Z,34.63
2022-12-19T21:13:54.443Z,34.85
2022-12-19T21:16:22.108Z,33.88
2022-12-19T21:18:50.032Z,30.67
2022-12-19T21:21:21.945Z,31.88
2022-12-19T21:23:48.795Z,30.73
2022-12-19T21:26:15.721Z,33.65
2022-12-19T21:28:43.060Z,33.50
2022-12-19T21:31:15.041Z,33.47
2022-12-19T21:33:41.902Z,32.25
2022-12-19T21:36:09.891Z,29.85
2022-12-19T21:38:36.902Z,30.20
2022-12-19T21:41:07.670Z,29.92
2022-12-19T21:43:35.267Z,29.25
2022-12-19T21:46:08.974Z,29.83
2022-12-19T21:48:37.277Z,30.10
2022-12-19T21:51:04.106Z,29.02
2022-12-19T21:53:30.786Z,30.70
2022-12-19T21:56:09.675Z,32.70
2022-12-19T21:58:36.328Z,29.17
2022-12-19T22:01:07.866Z,27.92
2022-12-19T22:03:35.194Z,28.27
2022-12-19T22:06:02.020Z,29.48
2022-12-19T22:08:28.664Z,30.85
2022-12-19T22:10:55.579Z,29.60
2022-12-19T22:13:22.354Z,29.70
2022-12-19T22:15:49.136Z,29.63
2022-12-19T22:18:15.771Z,26.92
2022-12-19T22:20:43.174Z,29.10
2022-12-19T22:23:13.310Z,28.35
2022-12-19T22:25:40.649Z,26.38
2022-12-19T22:28:07.404Z,26.83
2022-12-19T22:30:35.263Z,27.77
2022-12-19T22:33:02.327Z,30.63
2022-12-19T22:35:29.054Z,31.42
2022-12-19T22:37:56.606Z,29.23
2022-12-19T22:40:23.382Z,27.67
2022-12-19T22:42:50.035Z,28.00
2022-12-19T22:45:16.788Z,25.50
2022-12-19T22:47:43.599Z,28.13
2022-12-19T22:50:13.347Z,28.58
2022-12-19T22:52:40.123Z,30.95
2022-12-19T22:55:07.053Z,28.88
2022-12-19T22:57:33.728Z,29.13
2022-12-19T23:00:00.493Z,29.20
2022-12-19T23:02:27.375Z,31.05
2022-12-19T23:04:54.133Z,26.23
2022-12-19T23:07:21.175Z,28.75
2022-12-19T23:09:47.822Z,29.23
2022-12-19T23:12:14.555Z,28.20
2022-12-19T23:14:41.193Z,30.98
2022-12-19T23:17:07.949Z,29.88
2022-12-19T23:19:34.593Z,30.23
2022-12-19T23:22:01.282Z,28.75
2022-12-19T23:24:28.002Z,28.13
2022-12-19T23:26:54.691Z,29.73
2022-12-19T23:29:21.402Z,30.08
2022-12-19T23:31:48.197Z,28.67
2022-12-19T23:34:15.739Z,29.02
2022-12-19T23:39:29.058Z,25.25
2022-12-19T23:41:55.775Z,27.77
2022-12-19T23:44:22.628Z,28.17
2022-12-19T23:46:49.275Z,26.65
2022-12-19T23:49:15.982Z,27.65
2022-12-19T23:51:42.855Z,26.83
2022-12-19T23:54:09.537Z,25.40
2022-12-19T23:56:36.441Z,23.75
2022-12-19T23:59:03.126Z,22.38
